sensor_id;sensor_type;location;lat;lon;timestamp;P1;durP1;ratioP1;P2;durP2;ratioP2
46751;SDS011;32497;48.936;9.270;2022-07-22T00:03:49;6.10;;;5.32;;
46751;SDS011;32497;48.936;9.270;2022-07-22T00:08:50;7.32;;;6.10;;
46751;SDS011;32497;48.936;9.270;2022-07-22T00:13:51;7.18;;;6.03;;
46751;SDS011;32497;48.936;9.270;2022-07-22T00:18:53;7.60;;;5.68;;
46751;SDS011;32497;48.936;9.270;2022-07-22T00:23:54;7.13;;;5.70;;
46751;SDS011;32497;48.936;9.270;2022-07-22T00:28:55;8.73;;;6.20;;
46751;SDS011;32497;48.936;9.270;2022-07-22T00:33:57;9.25;;;6.35;;
46751;SDS011;32497;48.936;9.270;2022-07-22T00:38:59;7.47;;;6.45;;
46751;SDS011;32497;48.936;9.270;2022-07-22T00:44:01;7.20;;;6.07;;
46751;SDS011;32497;48.936;9.270;2022-07-22T00:49:06;8.02;;;6.50;;
46751;SDS011;32497;48.936;9.270;2022-07-22T00:54:08;8.30;;;6.05;;
46751;SDS011;32497;48.936;9.270;2022-07-22T00:59:10;7.47;;;6.22;;
46751;SDS011;32497;48.936;9.270;2022-07-22T01:04:14;6.90;;;6.20;;
46751;SDS011;32497;48.936;9.270;2022-07-22T01:09:15;8.35;;;6.53;;
46751;SDS011;32497;48.936;9.270;2022-07-22T01:14:17;10.43;;;6.45;;
46751;SDS011;32497;48.936;9.270;2022-07-22T01:19:19;7.18;;;6.07;;
46751;SDS011;32497;48.936;9.270;2022-07-22T01:24:23;9.10;;;6.35;;
46751;SDS011;32497;48.936;9.270;2022-07-22T01:29:24;8.20;;;6.60;;
46751;SDS011;32497;48.936;9.270;2022-07-22T01:34:25;9.68;;;6.93;;
46751;SDS011;32497;48.936;9.270;2022-07-22T01:39:28;8.98;;;6.55;;
46751;SDS011;32497;48.936;9.270;2022-07-22T01:44:30;9.75;;;5.90;;
46751;SDS011;32497;48.936;9.270;2022-07-22T01:49:32;8.75;;;5.78;;
46751;SDS011;32497;48.936;9.270;2022-07-22T01:54:35;7.15;;;5.85;;
46751;SDS011;32497;48.936;9.270;2022-07-22T01:59:36;8.25;;;5.90;;
46751;SDS011;32497;48.936;9.270;2022-07-22T02:04:37;7.95;;;5.80;;
46751;SDS011;32497;48.936;9.270;2022-07-22T02:09:40;8.77;;;6.13;;
46751;SDS011;32497;48.936;9.270;2022-07-22T02:14:41;7.90;;;6.05;;
46751;SDS011;32497;48.936;9.270;2022-07-22T02:19:42;8.93;;;6.03;;
46751;SDS011;32497;48.936;9.270;2022-07-22T02:24:47;8.93;;;6.43;;
46751;SDS011;32497;48.936;9.270;2022-07-22T02:29:48;7.75;;;6.25;;
46751;SDS011;32497;48.936;9.270;2022-07-22T02:34:49;9.25;;;6.97;;
46751;SDS011;32497;48.936;9.270;2022-07-22T02:39:51;8.55;;;6.65;;
46751;SDS011;32497;48.936;9.270;2022-07-22T02:44:52;9.13;;;6.22;;
46751;SDS011;32497;48.936;9.270;2022-07-22T02:49:54;9.82;;;6.90;;
46751;SDS011;32497;48.936;9.270;2022-07-22T02:54:57;10.20;;;7.40;;
46751;SDS011;32497;48.936;9.270;2022-07-22T02:59:58;9.07;;;6.63;;
46751;SDS011;32497;48.936;9.270;2022-07-22T03:04:59;9.75;;;6.93;;
46751;SDS011;32497;48.936;9.270;2022-07-22T03:10:02;9.05;;;7.15;;
46751;SDS011;32497;48.936;9.270;2022-07-22T03:15:05;8.80;;;6.70;;
46751;SDS011;32497;48.936;9.270;2022-07-22T03:20:10;9.30;;;7.03;;
46751;SDS011;32497;48.936;9.270;2022-07-22T03:25:13;9.07;;;6.70;;
46751;SDS011;32497;48.936;9.270;2022-07-22T03:30:15;9.57;;;7.15;;
46751;SDS011;32497;48.936;9.270;2022-07-22T03:35:16;9.05;;;6.88;;
46751;SDS011;32497;48.936;9.270;2022-07-22T03:40:21;9.18;;;6.97;;
46751;SDS011;32497;48.936;9.270;2022-07-22T03:45:22;7.85;;;6.00;;
46751;SDS011;32497;48.936;9.270;2022-07-22T03:50:23;10.73;;;6.85;;
46751;SDS011;32497;48.936;9.270;2022-07-22T03:55:26;10.10;;;6.65;;
46751;SDS011;32497;48.936;9.270;2022-07-22T04:00:30;9.10;;;6.40;;
46751;SDS011;32497;48.936;9.270;2022-07-22T04:05:33;9.88;;;7.10;;
46751;SDS011;32497;48.936;9.270;2022-07-22T04:10:36;10.40;;;7.18;;
46751;SDS011;32497;48.936;9.270;2022-07-22T04:15:37;10.80;;;7.32;;
46751;SDS011;32497;48.936;9.270;2022-07-22T04:20:40;11.30;;;7.70;;
46751;SDS011;32497;48.936;9.270;2022-07-22T04:26:12;10.98;;;7.28;;
46751;SDS011;32497;48.936;9.270;2022-07-22T04:31:13;12.40;;;7.95;;
46751;SDS011;32497;48.936;9.270;2022-07-22T04:36:16;8.90;;;6.28;;
46751;SDS011;32497;48.936;9.270;2022-07-22T04:41:19;10.40;;;7.45;;
46751;SDS011;32497;48.936;9.270;2022-07-22T04:46:21;8.85;;;7.13;;
46751;SDS011;32497;48.936;9.270;2022-07-22T04:51:22;8.65;;;6.85;;
46751;SDS011;32497;48.936;9.270;2022-07-22T04:56:28;8.02;;;6.50;;
46751;SDS011;32497;48.936;9.270;2022-07-22T05:01:30;9.13;;;7.25;;
46751;SDS011;32497;48.936;9.270;2022-07-22T05:06:31;10.50;;;7.97;;
46751;SDS011;32497;48.936;9.270;2022-07-22T05:11:34;9.70;;;7.20;;
46751;SDS011;32497;48.936;9.270;2022-07-22T05:16:36;10.10;;;7.57;;
46751;SDS011;32497;48.936;9.270;2022-07-22T05:21:38;12.18;;;8.13;;
46751;SDS011;32497;48.936;9.270;2022-07-22T05:26:42;10.70;;;7.88;;
46751;SDS011;32497;48.936;9.270;2022-07-22T05:31:43;10.43;;;6.90;;
46751;SDS011;32497;48.936;9.270;2022-07-22T05:36:45;8.90;;;6.45;;
46751;SDS011;32497;48.936;9.270;2022-07-22T05:41:48;8.25;;;7.05;;
46751;SDS011;32497;48.936;9.270;2022-07-22T05:46:50;9.77;;;7.25;;
46751;SDS011;32497;48.936;9.270;2022-07-22T05:51:52;9.10;;;7.15;;
46751;SDS011;32497;48.936;9.270;2022-07-22T05:56:54;10.38;;;7.15;;
46751;SDS011;32497;48.936;9.270;2022-07-22T06:01:56;9.25;;;7.00;;
46751;SDS011;32497;48.936;9.270;2022-07-22T06:07:26;9.45;;;7.57;;
46751;SDS011;32497;48.936;9.270;2022-07-22T06:12:34;10.95;;;7.00;;
46751;SDS011;32497;48.936;9.270;2022-07-22T06:17:35;8.95;;;7.00;;
46751;SDS011;32497;48.936;9.270;2022-07-22T06:22:38;10.18;;;6.80;;
46751;SDS011;32497;48.936;9.270;2022-07-22T06:27:41;11.68;;;6.88;;
46751;SDS011;32497;48.936;9.270;2022-07-22T06:32:42;8.43;;;6.25;;
46751;SDS011;32497;48.936;9.270;2022-07-22T06:37:44;7.15;;;6.45;;
46751;SDS011;32497;48.936;9.270;2022-07-22T06:42:46;7.43;;;6.68;;
46751;SDS011;32497;48.936;9.270;2022-07-22T06:48:07;7.18;;;6.47;;
46751;SDS011;32497;48.936;9.270;2022-07-22T06:53:08;10.10;;;6.72;;
46751;SDS011;32497;48.936;9.270;2022-07-22T06:58:12;11.07;;;6.68;;
46751;SDS011;32497;48.936;9.270;2022-07-22T07:03:14;7.32;;;6.32;;
46751;SDS011;32497;48.936;9.270;2022-07-22T07:08:16;10.07;;;6.10;;
46751;SDS011;32497;48.936;9.270;2022-07-22T07:13:18;9.07;;;6.32;;
46751;SDS011;32497;48.936;9.270;2022-07-22T07:18:21;8.50;;;6.65;;
46751;SDS011;32497;48.936;9.270;2022-07-22T07:23:22;11.63;;;6.80;;
46751;SDS011;32497;48.936;9.270;2022-07-22T07:28:25;7.40;;;5.90;;
46751;SDS011;32497;48.936;9.270;2022-07-22T07:33:33;6.90;;;6.20;;
46751;SDS011;32497;48.936;9.270;2022-07-22T07:38:35;6.88;;;5.90;;
46751;SDS011;32497;48.936;9.270;2022-07-22T07:43:39;6.95;;;6.25;;
46751;SDS011;32497;48.936;9.270;2022-07-22T07:48:40;6.97;;;6.18;;
46751;SDS011;32497;48.936;9.270;2022-07-22T07:53:41;7.95;;;6.30;;
46751;SDS011;32497;48.936;9.270;2022-07-22T07:58:44;6.60;;;5.90;;
46751;SDS011;32497;48.936;9.270;2022-07-22T08:03:45;7.00;;;6.03;;
46751;SDS011;32497;48.936;9.270;2022-07-22T08:08:47;6.82;;;6.00;;
46751;SDS011;32497;48.936;9.270;2022-07-22T08:13:54;7.60;;;6.43;;
46751;SDS011;32497;48.936;9.270;2022-07-22T08:19:01;6.60;;;6.00;;
46751;SDS011;32497;48.936;9.270;2022-07-22T08:24:04;7.10;;;5.80;;
46751;SDS011;32497;48.936;9.270;2022-07-22T08:29:06;6.35;;;5.72;;
46751;SDS011;32497;48.936;9.270;2022-07-22T08:34:08;6.50;;;5.90;;
46751;SDS011;32497;48.936;9.270;2022-07-22T08:39:09;6.65;;;5.95;;
46751;SDS011;32497;48.936;9.270;2022-07-22T08:44:12;6.32;;;5.72;;
46751;SDS011;32497;48.936;9.270;2022-07-22T08:49:14;7.22;;;6.53;;
46751;SDS011;32497;48.936;9.270;2022-07-22T08:54:39;7.88;;;6.38;;
46751;SDS011;32497;48.936;9.270;2022-07-22T08:59:52;6.60;;;5.80;;
46751;SDS011;32497;48.936;9.270;2022-07-22T09:04:55;7.20;;;6.13;;
46751;SDS011;32497;48.936;9.270;2022-07-22T09:09:58;7.30;;;6.75;;
46751;SDS011;32497;48.936;9.270;2022-07-22T09:15:28;6.88;;;5.60;;
46751;SDS011;32497;48.936;9.270;2022-07-22T09:20:49;6.10;;;5.47;;
46751;SDS011;32497;48.936;9.270;2022-07-22T09:32:00;8.93;;;6.38;;
46751;SDS011;32497;48.936;9.270;2022-07-22T09:37:34;6.30;;;5.70;;
46751;SDS011;32497;48.936;9.270;2022-07-22T09:42:43;6.43;;;5.75;;
46751;SDS011;32497;48.936;9.270;2022-07-22T09:47:47;8.43;;;7.32;;
46751;SDS011;32497;48.936;9.270;2022-07-22T09:53:08;6.20;;;5.60;;
46751;SDS011;32497;48.936;9.270;2022-07-22T09:58:15;6.32;;;5.72;;
46751;SDS011;32497;48.936;9.270;2022-07-22T10:03:21;6.25;;;5.22;;
46751;SDS011;32497;48.936;9.270;2022-07-22T10:08:26;7.63;;;6.88;;
46751;SDS011;32497;48.936;9.270;2022-07-22T10:13:28;7.95;;;7.13;;
46751;SDS011;32497;48.936;9.270;2022-07-22T10:18:32;6.93;;;6.32;;
46751;SDS011;32497;48.936;9.270;2022-07-22T10:23:34;5.70;;;5.20;;
46751;SDS011;32497;48.936;9.270;2022-07-22T10:28:36;7.43;;;6.72;;
46751;SDS011;32497;48.936;9.270;2022-07-22T10:33:39;6.97;;;6.38;;
46751;SDS011;32497;48.936;9.270;2022-07-22T10:38:44;7.22;;;6.63;;
46751;SDS011;32497;48.936;9.270;2022-07-22T10:44:03;6.57;;;5.18;;
46751;SDS011;32497;48.936;9.270;2022-07-22T10:49:06;6.22;;;5.38;;
46751;SDS011;32497;48.936;9.270;2022-07-22T10:54:10;5.78;;;5.18;;
46751;SDS011;32497;48.936;9.270;2022-07-22T10:59:11;5.60;;;4.95;;
46751;SDS011;32497;48.936;9.270;2022-07-22T11:04:15;7.93;;;5.93;;
46751;SDS011;32497;48.936;9.270;2022-07-22T11:09:17;7.03;;;5.30;;
46751;SDS011;32497;48.936;9.270;2022-07-22T11:14:23;5.53;;;5.03;;
46751;SDS011;32497;48.936;9.270;2022-07-22T11:19:28;5.65;;;5.18;;
46751;SDS011;32497;48.936;9.270;2022-07-22T11:24:30;5.70;;;5.10;;
46751;SDS011;32497;48.936;9.270;2022-07-22T11:29:32;6.32;;;5.43;;
46751;SDS011;32497;48.936;9.270;2022-07-22T11:34:37;6.85;;;4.50;;
46751;SDS011;32497;48.936;9.270;2022-07-22T11:39:39;5.45;;;4.85;;
46751;SDS011;32497;48.936;9.270;2022-07-22T11:44:40;5.45;;;4.82;;
46751;SDS011;32497;48.936;9.270;2022-07-22T11:49:45;5.72;;;5.10;;
46751;SDS011;32497;48.936;9.270;2022-07-22T11:54:48;5.85;;;5.18;;
46751;SDS011;32497;48.936;9.270;2022-07-22T11:59:49;5.93;;;5.43;;
46751;SDS011;32497;48.936;9.270;2022-07-22T12:04:51;6.10;;;5.13;;
46751;SDS011;32497;48.936;9.270;2022-07-22T12:09:53;5.45;;;4.95;;
46751;SDS011;32497;48.936;9.270;2022-07-22T12:14:55;6.40;;;5.90;;
46751;SDS011;32497;48.936;9.270;2022-07-22T12:20:10;5.72;;;5.07;;
46751;SDS011;32497;48.936;9.270;2022-07-22T12:25:11;4.95;;;4.47;;
46751;SDS011;32497;48.936;9.270;2022-07-22T12:30:12;5.20;;;4.70;;
46751;SDS011;32497;48.936;9.270;2022-07-22T12:35:15;5.05;;;4.60;;
46751;SDS011;32497;48.936;9.270;2022-07-22T12:40:17;8.00;;;5.78;;
46751;SDS011;32497;48.936;9.270;2022-07-22T12:45:19;5.10;;;4.60;;
46751;SDS011;32497;48.936;9.270;2022-07-22T12:50:25;6.60;;;6.00;;
46751;SDS011;32497;48.936;9.270;2022-07-22T12:55:27;6.78;;;6.18;;
46751;SDS011;32497;48.936;9.270;2022-07-22T13:00:30;6.90;;;6.30;;
46751;SDS011;32497;48.936;9.270;2022-07-22T13:05:33;6.53;;;5.90;;
46751;SDS011;32497;48.936;9.270;2022-07-22T13:10:35;6.47;;;5.97;;
46751;SDS011;32497;48.936;9.270;2022-07-22T13:15:37;6.63;;;6.13;;
46751;SDS011;32497;48.936;9.270;2022-07-22T13:20:39;6.18;;;5.68;;
46751;SDS011;32497;48.936;9.270;2022-07-22T13:25:40;6.38;;;5.78;;
46751;SDS011;32497;48.936;9.270;2022-07-22T13:30:41;6.80;;;5.85;;
46751;SDS011;32497;48.936;9.270;2022-07-22T13:35:43;6.45;;;5.88;;
46751;SDS011;32497;48.936;9.270;2022-07-22T13:40:45;6.50;;;5.90;;
46751;SDS011;32497;48.936;9.270;2022-07-22T13:45:46;6.43;;;5.82;;
46751;SDS011;32497;48.936;9.270;2022-07-22T13:50:52;6.25;;;5.75;;
46751;SDS011;32497;48.936;9.270;2022-07-22T13:55:53;5.60;;;5.22;;
46751;SDS011;32497;48.936;9.270;2022-07-22T14:00:54;6.25;;;5.85;;
46751;SDS011;32497;48.936;9.270;2022-07-22T14:05:57;6.55;;;5.95;;
46751;SDS011;32497;48.936;9.270;2022-07-22T14:10:59;6.30;;;5.80;;
46751;SDS011;32497;48.936;9.270;2022-07-22T14:16:00;5.93;;;5.53;;
46751;SDS011;32497;48.936;9.270;2022-07-22T14:21:03;6.07;;;5.57;;
46751;SDS011;32497;48.936;9.270;2022-07-22T14:26:04;6.20;;;5.70;;
46751;SDS011;32497;48.936;9.270;2022-07-22T14:31:05;6.30;;;5.80;;
46751;SDS011;32497;48.936;9.270;2022-07-22T14:36:08;6.50;;;5.68;;
46751;SDS011;32497;48.936;9.270;2022-07-22T14:41:09;8.10;;;5.75;;
46751;SDS011;32497;48.936;9.270;2022-07-22T14:46:10;6.15;;;5.65;;
46751;SDS011;32497;48.936;9.270;2022-07-22T14:51:13;6.25;;;5.70;;
46751;SDS011;32497;48.936;9.270;2022-07-22T14:56:14;5.68;;;5.28;;
46751;SDS011;32497;48.936;9.270;2022-07-22T15:01:15;5.93;;;5.43;;
46751;SDS011;32497;48.936;9.270;2022-07-22T15:06:17;4.90;;;4.38;;
46751;SDS011;32497;48.936;9.270;2022-07-22T15:11:18;6.28;;;5.78;;
46751;SDS011;32497;48.936;9.270;2022-07-22T15:16:19;6.30;;;5.72;;
46751;SDS011;32497;48.936;9.270;2022-07-22T15:21:21;6.20;;;5.75;;
46751;SDS011;32497;48.936;9.270;2022-07-22T15:26:22;6.20;;;5.70;;
46751;SDS011;32497;48.936;9.270;2022-07-22T15:31:24;5.85;;;5.45;;
46751;SDS011;32497;48.936;9.270;2022-07-22T15:36:27;6.22;;;5.63;;
46751;SDS011;32497;48.936;9.270;2022-07-22T15:41:28;6.43;;;5.60;;
46751;SDS011;32497;48.936;9.270;2022-07-22T15:46:29;5.97;;;5.40;;
46751;SDS011;32497;48.936;9.270;2022-07-22T15:51:31;5.82;;;5.35;;
46751;SDS011;32497;48.936;9.270;2022-07-22T15:56:32;5.45;;;5.05;;
46751;SDS011;32497;48.936;9.270;2022-07-22T16:01:33;5.80;;;5.10;;
46751;SDS011;32497;48.936;9.270;2022-07-22T16:06:36;5.78;;;5.30;;
46751;SDS011;32497;48.936;9.270;2022-07-22T16:11:37;5.88;;;5.20;;
46751;SDS011;32497;48.936;9.270;2022-07-22T16:16:38;5.82;;;5.43;;
46751;SDS011;32497;48.936;9.270;2022-07-22T16:21:40;6.32;;;5.00;;
46751;SDS011;32497;48.936;9.270;2022-07-22T16:26:41;5.35;;;4.88;;
46751;SDS011;32497;48.936;9.270;2022-07-22T16:31:42;5.40;;;5.00;;
46751;SDS011;32497;48.936;9.270;2022-07-22T16:36:45;4.35;;;3.95;;
46751;SDS011;32497;48.936;9.270;2022-07-22T16:41:46;4.63;;;4.30;;
46751;SDS011;32497;48.936;9.270;2022-07-22T16:46:47;5.50;;;5.10;;
46751;SDS011;32497;48.936;9.270;2022-07-22T16:51:49;5.65;;;5.15;;
46751;SDS011;32497;48.936;9.270;2022-07-22T16:56:50;5.82;;;5.43;;
46751;SDS011;32497;48.936;9.270;2022-07-22T17:01:51;4.82;;;3.88;;
46751;SDS011;32497;48.936;9.270;2022-07-22T17:06:54;5.85;;;5.35;;
46751;SDS011;32497;48.936;9.270;2022-07-22T17:11:55;6.38;;;5.80;;
46751;SDS011;32497;48.936;9.270;2022-07-22T17:16:56;5.82;;;4.78;;
46751;SDS011;32497;48.936;9.270;2022-07-22T17:21:58;5.95;;;5.35;;
46751;SDS011;32497;48.936;9.270;2022-07-22T17:26:59;5.30;;;4.80;;
46751;SDS011;32497;48.936;9.270;2022-07-22T17:32:00;5.95;;;5.30;;
46751;SDS011;32497;48.936;9.270;2022-07-22T17:37:02;6.47;;;5.88;;
46751;SDS011;32497;48.936;9.270;2022-07-22T17:42:04;6.30;;;5.53;;
46751;SDS011;32497;48.936;9.270;2022-07-22T17:47:05;5.53;;;5.03;;
46751;SDS011;32497;48.936;9.270;2022-07-22T17:52:07;6.07;;;4.70;;
46751;SDS011;32497;48.936;9.270;2022-07-22T17:57:08;5.63;;;5.13;;
46751;SDS011;32497;48.936;9.270;2022-07-22T18:02:09;4.85;;;4.45;;
46751;SDS011;32497;48.936;9.270;2022-07-22T18:07:11;4.93;;;4.43;;
46751;SDS011;32497;48.936;9.270;2022-07-22T18:12:13;7.65;;;6.20;;
46751;SDS011;32497;48.936;9.270;2022-07-22T18:17:14;4.20;;;3.80;;
46751;SDS011;32497;48.936;9.270;2022-07-22T18:22:16;5.47;;;4.03;;
46751;SDS011;32497;48.936;9.270;2022-07-22T18:27:17;6.05;;;3.95;;
46751;SDS011;32497;48.936;9.270;2022-07-22T18:32:18;4.82;;;4.07;;
46751;SDS011;32497;48.936;9.270;2022-07-22T18:37:20;7.53;;;4.20;;
46751;SDS011;32497;48.936;9.270;2022-07-22T18:42:21;5.22;;;4.15;;
46751;SDS011;32497;48.936;9.270;2022-07-22T18:47:22;5.13;;;3.90;;
46751;SDS011;32497;48.936;9.270;2022-07-22T18:52:25;5.43;;;4.55;;
46751;SDS011;32497;48.936;9.270;2022-07-22T18:57:26;5.70;;;4.63;;
46751;SDS011;32497;48.936;9.270;2022-07-22T19:02:27;4.75;;;4.25;;
46751;SDS011;32497;48.936;9.270;2022-07-22T19:07:29;5.10;;;4.60;;
46751;SDS011;32497;48.936;9.270;2022-07-22T19:12:30;6.47;;;5.15;;
46751;SDS011;32497;48.936;9.270;2022-07-22T19:17:31;6.47;;;4.90;;
46751;SDS011;32497;48.936;9.270;2022-07-22T19:22:34;5.47;;;4.93;;
46751;SDS011;32497;48.936;9.270;2022-07-22T19:27:35;7.45;;;4.78;;
46751;SDS011;32497;48.936;9.270;2022-07-22T19:32:36;5.18;;;4.68;;
46751;SDS011;32497;48.936;9.270;2022-07-22T19:37:38;7.65;;;5.10;;
46751;SDS011;32497;48.936;9.270;2022-07-22T19:42:39;5.57;;;4.78;;
46751;SDS011;32497;48.936;9.270;2022-07-22T19:47:41;6.03;;;4.82;;
46751;SDS011;32497;48.936;9.270;2022-07-22T19:52:44;6.82;;;4.88;;
46751;SDS011;32497;48.936;9.270;2022-07-22T19:57:45;6.05;;;5.32;;
46751;SDS011;32497;48.936;9.270;2022-07-22T20:02:46;7.13;;;5.32;;
46751;SDS011;32497;48.936;9.270;2022-07-22T20:07:48;6.90;;;4.80;;
46751;SDS011;32497;48.936;9.270;2022-07-22T20:12:49;9.82;;;6.40;;
46751;SDS011;32497;48.936;9.270;2022-07-22T20:17:50;7.82;;;7.10;;
46751;SDS011;32497;48.936;9.270;2022-07-22T20:22:53;6.40;;;5.82;;
46751;SDS011;32497;48.936;9.270;2022-07-22T20:27:54;10.23;;;9.02;;
46751;SDS011;32497;48.936;9.270;2022-07-22T20:32:55;8.32;;;7.53;;
46751;SDS011;32497;48.936;9.270;2022-07-22T20:37:57;6.30;;;5.63;;
46751;SDS011;32497;48.936;9.270;2022-07-22T20:42:58;7.80;;;5.40;;
46751;SDS011;32497;48.936;9.270;2022-07-22T20:47:59;6.40;;;5.60;;
46751;SDS011;32497;48.936;9.270;2022-07-22T20:53:02;7.35;;;5.55;;
46751;SDS011;32497;48.936;9.270;2022-07-22T20:58:03;7.28;;;5.38;;
46751;SDS011;32497;48.936;9.270;2022-07-22T21:03:04;5.70;;;5.07;;
46751;SDS011;32497;48.936;9.270;2022-07-22T21:08:06;5.80;;;5.20;;
46751;SDS011;32497;48.936;9.270;2022-07-22T21:13:08;7.60;;;5.55;;
46751;SDS011;32497;48.936;9.270;2022-07-22T21:18:09;6.47;;;5.35;;
46751;SDS011;32497;48.936;9.270;2022-07-22T21:23:11;6.88;;;5.10;;
46751;SDS011;32497;48.936;9.270;2022-07-22T21:28:12;10.38;;;5.30;;
46751;SDS011;32497;48.936;9.270;2022-07-22T21:33:13;6.07;;;5.20;;
46751;SDS011;32497;48.936;9.270;2022-07-22T21:38:15;8.88;;;5.80;;
46751;SDS011;32497;48.936;9.270;2022-07-22T21:43:16;6.05;;;5.45;;
46751;SDS011;32497;48.936;9.270;2022-07-22T21:48:18;9.88;;;5.82;;
46751;SDS011;32497;48.936;9.270;2022-07-22T21:53:20;10.00;;;6.00;;
46751;SDS011;32497;48.936;9.270;2022-07-22T21:58:21;7.57;;;5.60;;
46751;SDS011;32497;48.936;9.270;2022-07-22T22:03:22;9.05;;;6.65;;
46751;SDS011;32497;48.936;9.270;2022-07-22T22:08:25;11.95;;;6.15;;
46751;SDS011;32497;48.936;9.270;2022-07-22T22:13:26;7.75;;;6.05;;
46751;SDS011;32497;48.936;9.270;2022-07-22T22:18:27;6.75;;;6.03;;
46751;SDS011;32497;48.936;9.270;2022-07-22T22:23:30;7.60;;;6.03;;
46751;SDS011;32497;48.936;9.270;2022-07-22T22:28:31;6.88;;;5.65;;
46751;SDS011;32497;48.936;9.270;2022-07-22T22:33:32;8.30;;;5.97;;
46751;SDS011;32497;48.936;9.270;2022-07-22T22:38:34;7.95;;;6.50;;
46751;SDS011;32497;48.936;9.270;2022-07-22T22:43:35;7.57;;;5.70;;
46751;SDS011;32497;48.936;9.270;2022-07-22T22:48:36;7.97;;;6.10;;
46751;SDS011;32497;48.936;9.270;2022-07-22T22:53:38;7.78;;;5.53;;
46751;SDS011;32497;48.936;9.270;2022-07-22T22:58:39;7.25;;;5.97;;
46751;SDS011;32497;48.936;9.270;2022-07-22T23:03:41;6.63;;;5.75;;
46751;SDS011;32497;48.936;9.270;2022-07-22T23:08:43;7.65;;;6.05;;
46751;SDS011;32497;48.936;9.270;2022-07-22T23:13:44;6.88;;;6.05;;
46751;SDS011;32497;48.936;9.270;2022-07-22T23:18:45;11.48;;;6.30;;
46751;SDS011;32497;48.936;9.270;2022-07-22T23:23:47;8.07;;;5.97;;
46751;SDS011;32497;48.936;9.270;2022-07-22T23:28:48;7.05;;;6.10;;
46751;SDS011;32497;48.936;9.270;2022-07-22T23:33:49;8.63;;;7.05;;
46751;SDS011;32497;48.936;9.270;2022-07-22T23:38:52;7.60;;;6.80;;
46751;SDS011;32497;48.936;9.270;2022-07-22T23:43:53;7.32;;;6.15;;
46751;SDS011;32497;48.936;9.270;2022-07-22T23:48:54;6.43;;;5.70;;
46751;SDS011;32497;48.936;9.270;2022-07-22T23:53:56;7.60;;;6.05;;
46751;SDS011;32497;48.936;9.270;2022-07-22T23:58:58;7.88;;;5.78;;
